Aérodrome :
LOGIN :

S'inscrire | Disclaimer

   EN    FR    IT 

 










Légende :    VFR   VFR Marginal   IFR   IFR Intensif   IFR Très Intensif
Visi : 
Plafond : 
>= 8 km
>= 3000ft
5 à 8 km
1000 à 3000 ft
1500m à 5 km
500 à 1000 ft
800 à 1500m
200 à 500 ft
< 800m
< 200 ft
Symboles :   Orages  Brouillard  Fortes neiges  Fortes précipitations  Vent > 20 kt
SIGMETs :   Divers  Orages  Givrage  Turbulence  Onde Orograph.  Cendres Volcan.






- Altitude de l'aérodrome : 75 ft
- Code IATA : MRH


EGYM - RAF Marham

DERNIER METAR :
  • 031924Z 36014KT 9999 -RA BKN012 OVC020 12/10 Q1008 TEMPO 7000 -RA SCT012 RMK GRN TEMPO GRN

METARs EXPIRÉS :
  • 031850Z 36014KT 9999 -RA BKN013 OVC025 13/10 Q1008 NOSIG RMK GRN GRN
  • 031820Z 36015KT 9999 -RA BKN015 OVC030 13/10 Q1008 BECMG 5000 RA SCT008 RMK WHT BECMG GRN
  • 031750Z 36016KT 9999 BKN018 OVC070 13/10 Q1008 BECMG 5000 RA SCT008 RMK WHT BECMG GRN
  • 031720Z 36015KT 9999 SCT018 OVC070 14/10 Q1008 NOSIG RMK WHT WHT
  • 031650Z 01012KT 9999 SCT018 OVC070 14/10 Q1008 NOSIG RMK WHT WHT

TAF TAF EGYM
Valide du 03 à 18h jusqu'au 04 à 02h UTC


031631Z 0318/0402 01014KT 9999 FEW020 BKN070
TEMPO 0318/0319 SCT020
BECMG 0319/0322 5000 RA SCT008 BKN020
PROB40
TEMPO 0319/0402 8000 -RA FEW020 BKN030
PROB30
TEMPO 0323/0401 4000 RADZ SCT006



MET'MAP, la Météo Aéronautique d'un coup d'oeil ! - Copyright ORBIFLY Décembre 2007 - Disclaimer

ORBIFLY MET'MAP TEAM :

Programmation & Développement : Alexandra Zaïnal
Sur une idée originale de : Baudouin d'Aumeries
Assistance à la programmation : Marc-Olivier Méhu
Soutien technique & logistique : Manuel Goepfert

Contact : metmap@orbifly.com




SOURCES & CREDITS :

   NOAA